KDHN/DHN METAR and TAF weather

Enter ICAO airport designator
Station Type Date Time Source
KDHN METAR 2021/01/17 17:53 UTC NOAA

KDHN 171753Z 27008KT 10SM CLR 12/M02 A3006 RMK AO2 SLP178 T01171017 10122 21022 58018 $


Station Type Date Time Source
KDHN Decoded METAR 2021/01/17 17:53 UTC NOAA

DOTHAN AIRPORT, AL, United States (KDHN) 31-19N 085-27W 113M
Jan 17, 2021 - 12:53 PM EST / 2021.01.17 1753 UTC
Wind: from the W (270 degrees) at 9 MPH (8 KT):0
Visibility: 10 mile(s):0
Sky conditions: clear
Temperature: 53.1 F (11.7 C)
Dew Point: 28.9 F (-1.7 C)
Relative Humidity: 39%
Pressure (altimeter): 30.06 in. Hg (1017 hPa)
Pressure tendency: 0.05 inches (1.8 hPa) lower than three hours ago
ob: KDHN 171753Z 27008KT 10SM CLR 12/M02 A3006 RMK AO2 SLP178 T01171017 10122 21022 58018
cycle: 18

Station Type Date Time Source
KDHN TAF 2021/01/17 18:30 UTC NOAA

TAF KDHN 171729Z 1718/1818 27009KT P6SM BKN220
FM172300 24005KT P6SM SKC

Example: see airport list